sensor_id;sensor_type;location;lat;lon;timestamp;P1;durP1;ratioP1;P2;durP2;ratioP2
65825;SDS011;52586;-43.152;172.732;2022-12-01T00:01:14;3.05;;;1.60;;
65825;SDS011;52586;-43.152;172.732;2022-12-01T00:03:47;3.42;;;1.70;;
65825;SDS011;52586;-43.152;172.732;2022-12-01T00:06:18;2.97;;;1.50;;
65825;SDS011;52586;-43.152;172.732;2022-12-01T00:08:49;2.45;;;1.35;;
65825;SDS011;52586;-43.152;172.732;2022-12-01T00:11:36;2.90;;;1.83;;
65825;SDS011;52586;-43.152;172.732;2022-12-01T00:14:07;2.90;;;1.70;;
65825;SDS011;52586;-43.152;172.732;2022-12-01T00:16:38;3.35;;;1.73;;
65825;SDS011;52586;-43.152;172.732;2022-12-01T00:19:11;2.13;;;1.38;;
65825;SDS011;52586;-43.152;172.732;2022-12-01T00:21:45;5.15;;;1.90;;
65825;SDS011;52586;-43.152;172.732;2022-12-01T00:24:16;4.03;;;1.95;;
65825;SDS011;52586;-43.152;172.732;2022-12-01T00:26:48;3.83;;;1.73;;
65825;SDS011;52586;-43.152;172.732;2022-12-01T00:29:19;3.20;;;1.60;;
65825;SDS011;52586;-43.152;172.732;2022-12-01T00:31:50;3.08;;;1.38;;
65825;SDS011;52586;-43.152;172.732;2022-12-01T00:34:23;2.38;;;1.25;;
65825;SDS011;52586;-43.152;172.732;2022-12-01T00:36:54;2.28;;;1.20;;
65825;SDS011;52586;-43.152;172.732;2022-12-01T00:39:25;2.28;;;1.45;;
65825;SDS011;52586;-43.152;172.732;2022-12-01T00:41:56;2.67;;;1.40;;
65825;SDS011;52586;-43.152;172.732;2022-12-01T00:44:28;4.07;;;1.60;;
65825;SDS011;52586;-43.152;172.732;2022-12-01T00:46:59;3.63;;;1.65;;
65825;SDS011;52586;-43.152;172.732;2022-12-01T00:49:33;2.90;;;1.48;;
65825;SDS011;52586;-43.152;172.732;2022-12-01T00:52:04;2.95;;;1.67;;
65825;SDS011;52586;-43.152;172.732;2022-12-01T00:54:36;2.15;;;1.38;;
65825;SDS011;52586;-43.152;172.732;2022-12-01T00:57:07;2.85;;;1.45;;
65825;SDS011;52586;-43.152;172.732;2022-12-01T00:59:39;2.92;;;1.40;;
65825;SDS011;52586;-43.152;172.732;2022-12-01T01:02:10;2.92;;;1.45;;
65825;SDS011;52586;-43.152;172.732;2022-12-01T01:04:44;2.85;;;1.67;;
65825;SDS011;52586;-43.152;172.732;2022-12-01T01:07:16;3.17;;;1.55;;
65825;SDS011;52586;-43.152;172.732;2022-12-01T01:09:47;4.00;;;1.40;;
65825;SDS011;52586;-43.152;172.732;2022-12-01T01:12:19;2.97;;;1.38;;
65825;SDS011;52586;-43.152;172.732;2022-12-01T01:14:50;3.08;;;1.70;;
65825;SDS011;52586;-43.152;172.732;2022-12-01T01:17:22;3.30;;;1.45;;
65825;SDS011;52586;-43.152;172.732;2022-12-01T01:19:55;3.22;;;1.60;;
65825;SDS011;52586;-43.152;172.732;2022-12-01T01:22:26;3.85;;;1.50;;
65825;SDS011;52586;-43.152;172.732;2022-12-01T01:24:58;2.70;;;1.30;;
65825;SDS011;52586;-43.152;172.732;2022-12-01T01:27:30;2.92;;;1.55;;
65825;SDS011;52586;-43.152;172.732;2022-12-01T01:30:02;2.67;;;1.50;;
65825;SDS011;52586;-43.152;172.732;2022-12-01T01:32:33;4.55;;;1.30;;
65825;SDS011;52586;-43.152;172.732;2022-12-01T01:35:07;3.45;;;1.40;;
65825;SDS011;52586;-43.152;172.732;2022-12-01T01:37:37;2.65;;;1.48;;
65825;SDS011;52586;-43.152;172.732;2022-12-01T01:40:08;2.92;;;1.50;;
65825;SDS011;52586;-43.152;172.732;2022-12-01T01:42:40;2.00;;;1.23;;
65825;SDS011;52586;-43.152;172.732;2022-12-01T01:45:16;3.60;;;1.20;;
65825;SDS011;52586;-43.152;172.732;2022-12-01T01:47:49;3.20;;;1.50;;
65825;SDS011;52586;-43.152;172.732;2022-12-01T01:50:23;2.25;;;1.13;;
65825;SDS011;52586;-43.152;172.732;2022-12-01T01:52:56;2.88;;;1.50;;
65825;SDS011;52586;-43.152;172.732;2022-12-01T01:55:30;2.08;;;1.20;;
65825;SDS011;52586;-43.152;172.732;2022-12-01T01:58:03;2.22;;;1.15;;
65825;SDS011;52586;-43.152;172.732;2022-12-01T02:00:37;3.38;;;1.20;;
65825;SDS011;52586;-43.152;172.732;2022-12-01T02:03:10;3.05;;;1.40;;
65825;SDS011;52586;-43.152;172.732;2022-12-01T02:05:45;2.42;;;1.50;;
65825;SDS011;52586;-43.152;172.732;2022-12-01T02:08:16;2.40;;;1.30;;
65825;SDS011;52586;-43.152;172.732;2022-12-01T02:10:55;2.92;;;1.45;;
65825;SDS011;52586;-43.152;172.732;2022-12-01T02:13:37;2.83;;;1.20;;
65825;SDS011;52586;-43.152;172.732;2022-12-01T02:16:16;2.15;;;1.17;;
65825;SDS011;52586;-43.152;172.732;2022-12-01T02:18:55;2.08;;;1.08;;
65825;SDS011;52586;-43.152;172.732;2022-12-01T02:21:40;4.57;;;1.42;;
65825;SDS011;52586;-43.152;172.732;2022-12-01T02:24:40;2.88;;;1.38;;
65825;SDS011;52586;-43.152;172.732;2022-12-01T02:27:36;2.28;;;1.25;;
65825;SDS011;52586;-43.152;172.732;2022-12-01T02:30:28;3.08;;;1.10;;
65825;SDS011;52586;-43.152;172.732;2022-12-01T02:33:04;2.78;;;1.20;;
65825;SDS011;52586;-43.152;172.732;2022-12-01T02:35:40;2.28;;;1.20;;
65825;SDS011;52586;-43.152;172.732;2022-12-01T02:38:18;1.75;;;1.00;;
65825;SDS011;52586;-43.152;172.732;2022-12-01T02:40:54;4.10;;;1.52;;
65825;SDS011;52586;-43.152;172.732;2022-12-01T02:43:30;3.13;;;1.45;;
65825;SDS011;52586;-43.152;172.732;2022-12-01T02:46:09;2.40;;;1.23;;
65825;SDS011;52586;-43.152;172.732;2022-12-01T02:48:47;3.17;;;1.20;;
65825;SDS011;52586;-43.152;172.732;2022-12-01T02:51:21;2.92;;;1.10;;
65825;SDS011;52586;-43.152;172.732;2022-12-01T02:53:55;2.95;;;1.20;;
65825;SDS011;52586;-43.152;172.732;2022-12-01T02:56:27;2.78;;;1.33;;
65825;SDS011;52586;-43.152;172.732;2022-12-01T02:58:58;1.55;;;0.90;;
65825;SDS011;52586;-43.152;172.732;2022-12-01T03:01:37;2.58;;;1.25;;
65825;SDS011;52586;-43.152;172.732;2022-12-01T03:07:29;2.22;;;0.90;;
65825;SDS011;52586;-43.152;172.732;2022-12-01T03:10:12;2.40;;;1.02;;
65825;SDS011;52586;-43.152;172.732;2022-12-01T03:12:56;4.18;;;1.10;;
65825;SDS011;52586;-43.152;172.732;2022-12-01T03:15:35;1.92;;;0.98;;
65825;SDS011;52586;-43.152;172.732;2022-12-01T03:18:20;4.35;;;1.00;;
65825;SDS011;52586;-43.152;172.732;2022-12-01T03:20:57;2.30;;;1.15;;
65825;SDS011;52586;-43.152;172.732;2022-12-01T03:23:34;2.13;;;1.10;;
65825;SDS011;52586;-43.152;172.732;2022-12-01T03:26:08;1.95;;;0.88;;
65825;SDS011;52586;-43.152;172.732;2022-12-01T03:28:45;2.05;;;0.90;;
65825;SDS011;52586;-43.152;172.732;2022-12-01T03:31:19;1.83;;;1.00;;
65825;SDS011;52586;-43.152;172.732;2022-12-01T03:33:56;2.65;;;1.15;;
65825;SDS011;52586;-43.152;172.732;2022-12-01T03:36:31;3.40;;;1.00;;
65825;SDS011;52586;-43.152;172.732;2022-12-01T03:39:06;2.40;;;1.20;;
65825;SDS011;52586;-43.152;172.732;2022-12-01T03:41:40;3.15;;;1.05;;
65825;SDS011;52586;-43.152;172.732;2022-12-01T03:44:20;3.65;;;1.15;;
65825;SDS011;52586;-43.152;172.732;2022-12-01T03:46:55;4.05;;;1.25;;
65825;SDS011;52586;-43.152;172.732;2022-12-01T03:49:32;2.65;;;1.33;;
65825;SDS011;52586;-43.152;172.732;2022-12-01T03:52:06;2.45;;;1.02;;
65825;SDS011;52586;-43.152;172.732;2022-12-01T03:54:45;2.53;;;1.23;;
65825;SDS011;52586;-43.152;172.732;2022-12-01T03:57:23;2.72;;;1.30;;
65825;SDS011;52586;-43.152;172.732;2022-12-01T03:59:57;2.20;;;1.10;;
65825;SDS011;52586;-43.152;172.732;2022-12-01T04:02:30;3.53;;;1.25;;
65825;SDS011;52586;-43.152;172.732;2022-12-01T04:05:04;1.20;;;0.80;;
65825;SDS011;52586;-43.152;172.732;2022-12-01T04:07:35;1.60;;;0.95;;
65825;SDS011;52586;-43.152;172.732;2022-12-01T04:10:07;2.95;;;1.20;;
65825;SDS011;52586;-43.152;172.732;2022-12-01T04:12:38;3.20;;;0.98;;
65825;SDS011;52586;-43.152;172.732;2022-12-01T04:15:08;2.15;;;1.13;;
65825;SDS011;52586;-43.152;172.732;2022-12-01T04:17:40;2.03;;;1.10;;
65825;SDS011;52586;-43.152;172.732;2022-12-01T04:20:15;3.28;;;1.10;;
65825;SDS011;52586;-43.152;172.732;2022-12-01T04:22:50;2.55;;;1.20;;
65825;SDS011;52586;-43.152;172.732;2022-12-01T04:25:57;2.92;;;0.90;;
65825;SDS011;52586;-43.152;172.732;2022-12-01T04:28:28;3.95;;;1.00;;
65825;SDS011;52586;-43.152;172.732;2022-12-01T04:30:59;2.22;;;0.98;;
65825;SDS011;52586;-43.152;172.732;2022-12-01T04:33:30;5.70;;;1.20;;
65825;SDS011;52586;-43.152;172.732;2022-12-01T04:36:02;2.95;;;1.25;;
65825;SDS011;52586;-43.152;172.732;2022-12-01T04:38:33;1.70;;;0.95;;
65825;SDS011;52586;-43.152;172.732;2022-12-01T04:41:07;2.58;;;1.20;;
65825;SDS011;52586;-43.152;172.732;2022-12-01T04:43:46;3.25;;;1.25;;
65825;SDS011;52586;-43.152;172.732;2022-12-01T04:46:17;3.45;;;0.90;;
65825;SDS011;52586;-43.152;172.732;2022-12-01T04:48:48;2.40;;;0.90;;
65825;SDS011;52586;-43.152;172.732;2022-12-01T04:51:21;3.13;;;1.27;;
65825;SDS011;52586;-43.152;172.732;2022-12-01T04:53:52;3.38;;;1.00;;
65825;SDS011;52586;-43.152;172.732;2022-12-01T04:56:22;2.95;;;1.30;;
65825;SDS011;52586;-43.152;172.732;2022-12-01T04:58:53;2.28;;;1.17;;
65825;SDS011;52586;-43.152;172.732;2022-12-01T05:01:24;2.92;;;0.98;;
65825;SDS011;52586;-43.152;172.732;2022-12-01T05:03:55;3.90;;;1.10;;
65825;SDS011;52586;-43.152;172.732;2022-12-01T05:06:28;2.33;;;1.00;;
65825;SDS011;52586;-43.152;172.732;2022-12-01T05:08:59;2.63;;;1.10;;
65825;SDS011;52586;-43.152;172.732;2022-12-01T05:11:30;2.85;;;1.02;;
65825;SDS011;52586;-43.152;172.732;2022-12-01T05:14:01;2.60;;;1.20;;
65825;SDS011;52586;-43.152;172.732;2022-12-01T05:16:32;2.58;;;1.20;;
65825;SDS011;52586;-43.152;172.732;2022-12-01T05:19:03;2.50;;;1.23;;
65825;SDS011;52586;-43.152;172.732;2022-12-01T05:21:52;1.70;;;1.00;;
65825;SDS011;52586;-43.152;172.732;2022-12-01T05:24:23;3.08;;;1.27;;
65825;SDS011;52586;-43.152;172.732;2022-12-01T05:26:54;2.88;;;0.88;;
65825;SDS011;52586;-43.152;172.732;2022-12-01T05:29:24;2.05;;;1.00;;
65825;SDS011;52586;-43.152;172.732;2022-12-01T05:31:58;2.08;;;1.10;;
65825;SDS011;52586;-43.152;172.732;2022-12-01T05:34:28;2.38;;;1.08;;
65825;SDS011;52586;-43.152;172.732;2022-12-01T05:37:01;3.75;;;1.00;;
65825;SDS011;52586;-43.152;172.732;2022-12-01T05:39:32;2.35;;;0.88;;
65825;SDS011;52586;-43.152;172.732;2022-12-01T05:42:02;2.63;;;1.15;;
65825;SDS011;52586;-43.152;172.732;2022-12-01T05:44:33;4.35;;;1.35;;
65825;SDS011;52586;-43.152;172.732;2022-12-01T05:47:04;2.85;;;1.10;;
65825;SDS011;52586;-43.152;172.732;2022-12-01T05:49:35;2.83;;;1.10;;
65825;SDS011;52586;-43.152;172.732;2022-12-01T05:52:07;2.88;;;1.35;;
65825;SDS011;52586;-43.152;172.732;2022-12-01T05:54:38;1.92;;;0.90;;
65825;SDS011;52586;-43.152;172.732;2022-12-01T05:57:09;4.18;;;1.35;;
65825;SDS011;52586;-43.152;172.732;2022-12-01T05:59:41;3.08;;;1.05;;
65825;SDS011;52586;-43.152;172.732;2022-12-01T06:02:12;4.05;;;1.15;;
65825;SDS011;52586;-43.152;172.732;2022-12-01T06:04:42;2.92;;;1.00;;
65825;SDS011;52586;-43.152;172.732;2022-12-01T06:07:15;15.10;;;11.88;;
65825;SDS011;52586;-43.152;172.732;2022-12-01T06:09:46;8.32;;;4.93;;
65825;SDS011;52586;-43.152;172.732;2022-12-01T06:12:16;4.43;;;3.47;;
65825;SDS011;52586;-43.152;172.732;2022-12-01T06:14:47;8.15;;;5.05;;
65825;SDS011;52586;-43.152;172.732;2022-12-01T06:17:18;14.98;;;9.52;;
65825;SDS011;52586;-43.152;172.732;2022-12-01T06:19:49;12.55;;;8.75;;
65825;SDS011;52586;-43.152;172.732;2022-12-01T06:22:21;13.40;;;9.52;;
65825;SDS011;52586;-43.152;172.732;2022-12-01T06:24:52;11.73;;;7.90;;
65825;SDS011;52586;-43.152;172.732;2022-12-01T06:27:23;11.80;;;8.68;;
65825;SDS011;52586;-43.152;172.732;2022-12-01T06:29:53;11.38;;;8.35;;
65825;SDS011;52586;-43.152;172.732;2022-12-01T06:32:25;12.30;;;8.38;;
65825;SDS011;52586;-43.152;172.732;2022-12-01T06:34:55;13.43;;;9.05;;
65825;SDS011;52586;-43.152;172.732;2022-12-01T06:37:28;13.15;;;8.93;;
65825;SDS011;52586;-43.152;172.732;2022-12-01T06:39:59;12.48;;;8.98;;
65825;SDS011;52586;-43.152;172.732;2022-12-01T06:42:29;11.80;;;8.40;;
65825;SDS011;52586;-43.152;172.732;2022-12-01T06:45:00;12.02;;;8.15;;
65825;SDS011;52586;-43.152;172.732;2022-12-01T06:47:31;11.65;;;8.02;;
65825;SDS011;52586;-43.152;172.732;2022-12-01T06:50:02;12.98;;;8.63;;
65825;SDS011;52586;-43.152;172.732;2022-12-01T06:52:36;9.73;;;7.20;;
65825;SDS011;52586;-43.152;172.732;2022-12-01T06:55:07;12.75;;;7.70;;
65825;SDS011;52586;-43.152;172.732;2022-12-01T06:57:39;11.45;;;7.63;;
65825;SDS011;52586;-43.152;172.732;2022-12-01T07:00:10;12.68;;;7.38;;
65825;SDS011;52586;-43.152;172.732;2022-12-01T07:02:42;9.60;;;7.20;;
65825;SDS011;52586;-43.152;172.732;2022-12-01T07:05:12;10.80;;;7.28;;
65825;SDS011;52586;-43.152;172.732;2022-12-01T07:07:45;12.25;;;6.80;;
65825;SDS011;52586;-43.152;172.732;2022-12-01T07:10:16;10.75;;;6.32;;
65825;SDS011;52586;-43.152;172.732;2022-12-01T07:12:46;9.43;;;5.95;;
65825;SDS011;52586;-43.152;172.732;2022-12-01T07:15:17;9.07;;;6.03;;
65825;SDS011;52586;-43.152;172.732;2022-12-01T07:17:48;8.57;;;5.60;;
65825;SDS011;52586;-43.152;172.732;2022-12-01T07:20:19;9.45;;;5.70;;
65825;SDS011;52586;-43.152;172.732;2022-12-01T07:22:52;9.55;;;6.07;;
65825;SDS011;52586;-43.152;172.732;2022-12-01T07:25:23;8.60;;;5.65;;
65825;SDS011;52586;-43.152;172.732;2022-12-01T07:27:54;7.80;;;5.97;;
65825;SDS011;52586;-43.152;172.732;2022-12-01T07:30:25;7.78;;;5.55;;
65825;SDS011;52586;-43.152;172.732;2022-12-01T07:32:55;6.90;;;5.38;;
65825;SDS011;52586;-43.152;172.732;2022-12-01T07:35:27;9.57;;;5.43;;
65825;SDS011;52586;-43.152;172.732;2022-12-01T07:37:59;7.13;;;5.38;;
65825;SDS011;52586;-43.152;172.732;2022-12-01T07:40:30;6.80;;;4.68;;
65825;SDS011;52586;-43.152;172.732;2022-12-01T07:43:01;7.30;;;4.97;;
65825;SDS011;52586;-43.152;172.732;2022-12-01T07:45:32;7.80;;;4.75;;
65825;SDS011;52586;-43.152;172.732;2022-12-01T07:48:03;7.97;;;4.90;;
65825;SDS011;52586;-43.152;172.732;2022-12-01T07:50:34;6.65;;;4.43;;
65825;SDS011;52586;-43.152;172.732;2022-12-01T07:53:07;6.57;;;4.43;;
65825;SDS011;52586;-43.152;172.732;2022-12-01T07:55:38;7.13;;;4.53;;
65825;SDS011;52586;-43.152;172.732;2022-12-01T07:58:15;6.30;;;4.07;;
65825;SDS011;52586;-43.152;172.732;2022-12-01T08:00:46;8.05;;;4.30;;
65825;SDS011;52586;-43.152;172.732;2022-12-01T08:03:17;6.75;;;4.30;;
65825;SDS011;52586;-43.152;172.732;2022-12-01T08:05:54;6.78;;;4.18;;
65825;SDS011;52586;-43.152;172.732;2022-12-01T08:08:27;5.25;;;3.95;;
65825;SDS011;52586;-43.152;172.732;2022-12-01T08:10:59;6.45;;;4.10;;
65825;SDS011;52586;-43.152;172.732;2022-12-01T08:13:32;7.45;;;3.97;;
65825;SDS011;52586;-43.152;172.732;2022-12-01T08:16:03;5.00;;;3.45;;
65825;SDS011;52586;-43.152;172.732;2022-12-01T08:18:34;6.20;;;3.53;;
65825;SDS011;52586;-43.152;172.732;2022-12-01T08:21:05;5.55;;;3.60;;
65825;SDS011;52586;-43.152;172.732;2022-12-01T08:23:39;5.63;;;3.85;;
65825;SDS011;52586;-43.152;172.732;2022-12-01T08:26:11;5.38;;;3.60;;
65825;SDS011;52586;-43.152;172.732;2022-12-01T08:28:43;6.05;;;3.53;;
65825;SDS011;52586;-43.152;172.732;2022-12-01T08:31:15;4.93;;;3.42;;
65825;SDS011;52586;-43.152;172.732;2022-12-01T08:33:47;5.70;;;3.50;;
65825;SDS011;52586;-43.152;172.732;2022-12-01T08:36:19;6.40;;;3.35;;
65825;SDS011;52586;-43.152;172.732;2022-12-01T08:38:52;6.75;;;2.92;;
65825;SDS011;52586;-43.152;172.732;2022-12-01T08:41:23;5.05;;;3.40;;
65825;SDS011;52586;-43.152;172.732;2022-12-01T08:43:54;3.30;;;2.40;;
65825;SDS011;52586;-43.152;172.732;2022-12-01T08:46:25;4.60;;;3.08;;
65825;SDS011;52586;-43.152;172.732;2022-12-01T08:48:58;4.78;;;3.10;;
65825;SDS011;52586;-43.152;172.732;2022-12-01T08:51:30;3.53;;;2.90;;
65825;SDS011;52586;-43.152;172.732;2022-12-01T08:54:03;5.38;;;2.97;;
65825;SDS011;52586;-43.152;172.732;2022-12-01T08:56:34;5.25;;;3.03;;
65825;SDS011;52586;-43.152;172.732;2022-12-01T08:59:06;3.97;;;2.58;;
65825;SDS011;52586;-43.152;172.732;2022-12-01T09:01:37;4.75;;;2.95;;
65825;SDS011;52586;-43.152;172.732;2022-12-01T09:04:19;3.90;;;2.40;;
65825;SDS011;52586;-43.152;172.732;2022-12-01T09:06:51;3.97;;;2.47;;
65825;SDS011;52586;-43.152;172.732;2022-12-01T09:09:25;3.88;;;2.72;;
65825;SDS011;52586;-43.152;172.732;2022-12-01T09:11:56;3.58;;;2.45;;
65825;SDS011;52586;-43.152;172.732;2022-12-01T09:14:27;3.45;;;2.53;;
65825;SDS011;52586;-43.152;172.732;2022-12-01T09:16:58;3.05;;;2.30;;
65825;SDS011;52586;-43.152;172.732;2022-12-01T09:19:28;3.60;;;2.30;;
65825;SDS011;52586;-43.152;172.732;2022-12-01T09:21:59;3.80;;;2.20;;
65825;SDS011;52586;-43.152;172.732;2022-12-01T09:24:32;2.97;;;1.98;;
65825;SDS011;52586;-43.152;172.732;2022-12-01T09:27:03;3.45;;;1.92;;
65825;SDS011;52586;-43.152;172.732;2022-12-01T09:29:34;4.10;;;2.28;;
65825;SDS011;52586;-43.152;172.732;2022-12-01T09:32:05;2.97;;;2.10;;
65825;SDS011;52586;-43.152;172.732;2022-12-01T09:34:36;3.45;;;2.17;;
65825;SDS011;52586;-43.152;172.732;2022-12-01T09:37:06;2.75;;;1.80;;
65825;SDS011;52586;-43.152;172.732;2022-12-01T09:39:39;3.38;;;1.92;;
65825;SDS011;52586;-43.152;172.732;2022-12-01T09:42:16;3.92;;;1.92;;
65825;SDS011;52586;-43.152;172.732;2022-12-01T09:44:52;3.10;;;1.77;;
65825;SDS011;52586;-43.152;172.732;2022-12-01T09:47:26;2.60;;;2.08;;
65825;SDS011;52586;-43.152;172.732;2022-12-01T09:49:59;3.28;;;2.05;;
65825;SDS011;52586;-43.152;172.732;2022-12-01T09:52:44;2.83;;;1.88;;
65825;SDS011;52586;-43.152;172.732;2022-12-01T09:55:20;3.15;;;1.80;;
65825;SDS011;52586;-43.152;172.732;2022-12-01T09:57:53;3.80;;;1.92;;
65825;SDS011;52586;-43.152;172.732;2022-12-01T10:00:26;3.92;;;1.90;;
65825;SDS011;52586;-43.152;172.732;2022-12-01T10:02:59;2.92;;;1.80;;
65825;SDS011;52586;-43.152;172.732;2022-12-01T10:05:41;3.30;;;1.80;;
65825;SDS011;52586;-43.152;172.732;2022-12-01T10:08:15;2.58;;;1.70;;
65825;SDS011;52586;-43.152;172.732;2022-12-01T10:10:51;3.05;;;1.70;;
65825;SDS011;52586;-43.152;172.732;2022-12-01T10:13:26;2.10;;;1.67;;
65825;SDS011;52586;-43.152;172.732;2022-12-01T10:16:02;3.17;;;1.50;;
65825;SDS011;52586;-43.152;172.732;2022-12-01T10:18:43;4.38;;;1.80;;
65825;SDS011;52586;-43.152;172.732;2022-12-01T10:21:22;2.25;;;1.58;;
65825;SDS011;52586;-43.152;172.732;2022-12-01T10:24:08;3.63;;;1.90;;
65825;SDS011;52586;-43.152;172.732;2022-12-01T10:26:52;2.85;;;1.60;;
65825;SDS011;52586;-43.152;172.732;2022-12-01T10:29:36;2.25;;;1.58;;
65825;SDS011;52586;-43.152;172.732;2022-12-01T10:32:12;2.20;;;1.58;;
65825;SDS011;52586;-43.152;172.732;2022-12-01T10:34:46;1.77;;;1.60;;
65825;SDS011;52586;-43.152;172.732;2022-12-01T10:37:18;2.30;;;1.58;;
65825;SDS011;52586;-43.152;172.732;2022-12-01T10:39:51;2.15;;;1.40;;
65825;SDS011;52586;-43.152;172.732;2022-12-01T10:42:25;2.45;;;1.45;;
65825;SDS011;52586;-43.152;172.732;2022-12-01T10:45:00;2.42;;;1.60;;
65825;SDS011;52586;-43.152;172.732;2022-12-01T10:47:32;2.22;;;1.42;;
65825;SDS011;52586;-43.152;172.732;2022-12-01T10:50:03;2.38;;;1.60;;
65825;SDS011;52586;-43.152;172.732;2022-12-01T10:52:35;2.28;;;1.50;;
65825;SDS011;52586;-43.152;172.732;2022-12-01T10:55:22;1.73;;;1.55;;
65825;SDS011;52586;-43.152;172.732;2022-12-01T10:57:56;2.20;;;1.40;;
65825;SDS011;52586;-43.152;172.732;2022-12-01T11:00:29;1.58;;;1.30;;
65825;SDS011;52586;-43.152;172.732;2022-12-01T11:03:03;3.22;;;1.48;;
65825;SDS011;52586;-43.152;172.732;2022-12-01T11:05:36;2.35;;;1.40;;
65825;SDS011;52586;-43.152;172.732;2022-12-01T11:08:19;2.67;;;1.60;;
65825;SDS011;52586;-43.152;172.732;2022-12-01T11:10:51;2.33;;;1.42;;
65825;SDS011;52586;-43.152;172.732;2022-12-01T11:13:25;1.70;;;1.30;;
65825;SDS011;52586;-43.152;172.732;2022-12-01T11:15:57;2.15;;;1.40;;
65825;SDS011;52586;-43.152;172.732;2022-12-01T11:18:30;1.30;;;1.20;;
65825;SDS011;52586;-43.152;172.732;2022-12-01T11:21:08;3.20;;;1.40;;
65825;SDS011;52586;-43.152;172.732;2022-12-01T11:23:44;1.73;;;1.20;;
65825;SDS011;52586;-43.152;172.732;2022-12-01T11:26:16;2.50;;;1.50;;
65825;SDS011;52586;-43.152;172.732;2022-12-01T11:28:52;1.30;;;1.13;;
65825;SDS011;52586;-43.152;172.732;2022-12-01T11:31:34;1.85;;;1.38;;
65825;SDS011;52586;-43.152;172.732;2022-12-01T11:34:07;1.67;;;1.00;;
65825;SDS011;52586;-43.152;172.732;2022-12-01T11:36:47;1.55;;;1.05;;
65825;SDS011;52586;-43.152;172.732;2022-12-01T11:39:22;2.03;;;1.63;;
65825;SDS011;52586;-43.152;172.732;2022-12-01T11:41:58;1.75;;;1.25;;
65825;SDS011;52586;-43.152;172.732;2022-12-01T11:44:32;2.00;;;1.40;;
65825;SDS011;52586;-43.152;172.732;2022-12-01T11:47:13;2.95;;;1.67;;
65825;SDS011;52586;-43.152;172.732;2022-12-01T11:49:51;1.30;;;1.20;;
65825;SDS011;52586;-43.152;172.732;2022-12-01T11:52:24;1.85;;;1.30;;
65825;SDS011;52586;-43.152;172.732;2022-12-01T11:55:00;1.60;;;1.20;;
65825;SDS011;52586;-43.152;172.732;2022-12-01T11:57:47;1.88;;;1.17;;
65825;SDS011;52586;-43.152;172.732;2022-12-01T12:00:22;2.63;;;1.25;;
65825;SDS011;52586;-43.152;172.732;2022-12-01T12:03:04;2.17;;;1.35;;
65825;SDS011;52586;-43.152;172.732;2022-12-01T12:05:47;1.52;;;1.17;;
65825;SDS011;52586;-43.152;172.732;2022-12-01T12:08:28;1.60;;;1.10;;
65825;SDS011;52586;-43.152;172.732;2022-12-01T12:11:08;1.98;;;1.15;;
65825;SDS011;52586;-43.152;172.732;2022-12-01T12:16:54;1.63;;;1.17;;
65825;SDS011;52586;-43.152;172.732;2022-12-01T12:19:45;1.48;;;1.20;;
65825;SDS011;52586;-43.152;172.732;2022-12-01T12:22:28;1.35;;;1.08;;
65825;SDS011;52586;-43.152;172.732;2022-12-01T12:25:23;2.13;;;1.08;;
65825;SDS011;52586;-43.152;172.732;2022-12-01T12:28:04;1.63;;;0.98;;
65825;SDS011;52586;-43.152;172.732;2022-12-01T12:30:50;1.75;;;1.13;;
65825;SDS011;52586;-43.152;172.732;2022-12-01T12:36:56;2.03;;;1.20;;
65825;SDS011;52586;-43.152;172.732;2022-12-01T12:39:43;2.38;;;1.17;;
65825;SDS011;52586;-43.152;172.732;2022-12-01T12:42:28;1.70;;;1.10;;
65825;SDS011;52586;-43.152;172.732;2022-12-01T12:45:08;1.35;;;0.80;;
65825;SDS011;52586;-43.152;172.732;2022-12-01T12:47:53;1.52;;;0.95;;
65825;SDS011;52586;-43.152;172.732;2022-12-01T12:50:41;1.73;;;1.00;;
65825;SDS011;52586;-43.152;172.732;2022-12-01T12:53:17;1.45;;;1.05;;
65825;SDS011;52586;-43.152;172.732;2022-12-01T12:55:52;1.40;;;0.80;;
65825;SDS011;52586;-43.152;172.732;2022-12-01T12:58:27;2.05;;;1.00;;
65825;SDS011;52586;-43.152;172.732;2022-12-01T13:01:05;1.35;;;0.88;;
65825;SDS011;52586;-43.152;172.732;2022-12-01T13:03:44;1.52;;;1.00;;
65825;SDS011;52586;-43.152;172.732;2022-12-01T13:06:24;1.75;;;1.02;;
65825;SDS011;52586;-43.152;172.732;2022-12-01T13:08:58;2.92;;;1.10;;
65825;SDS011;52586;-43.152;172.732;2022-12-01T13:11:36;1.77;;;0.95;;
65825;SDS011;52586;-43.152;172.732;2022-12-01T13:14:14;1.48;;;1.08;;
65825;SDS011;52586;-43.152;172.732;2022-12-01T13:16:48;2.05;;;1.20;;
65825;SDS011;52586;-43.152;172.732;2022-12-01T13:19:22;2.20;;;1.30;;
65825;SDS011;52586;-43.152;172.732;2022-12-01T13:21:58;1.10;;;0.73;;
65825;SDS011;52586;-43.152;172.732;2022-12-01T13:24:30;1.95;;;0.90;;
65825;SDS011;52586;-43.152;172.732;2022-12-01T13:27:01;1.30;;;0.90;;
65825;SDS011;52586;-43.152;172.732;2022-12-01T13:29:34;1.38;;;1.00;;
65825;SDS011;52586;-43.152;172.732;2022-12-01T13:32:06;0.95;;;0.82;;
65825;SDS011;52586;-43.152;172.732;2022-12-01T13:34:51;1.15;;;0.80;;
65825;SDS011;52586;-43.152;172.732;2022-12-01T13:37:27;1.83;;;0.80;;
65825;SDS011;52586;-43.152;172.732;2022-12-01T13:40:06;1.23;;;0.90;;
65825;SDS011;52586;-43.152;172.732;2022-12-01T13:42:38;1.15;;;0.80;;
65825;SDS011;52586;-43.152;172.732;2022-12-01T13:45:14;1.25;;;0.90;;
65825;SDS011;52586;-43.152;172.732;2022-12-01T13:47:48;1.75;;;0.88;;
65825;SDS011;52586;-43.152;172.732;2022-12-01T13:50:37;1.77;;;1.02;;
65825;SDS011;52586;-43.152;172.732;2022-12-01T13:53:34;1.10;;;0.80;;
65825;SDS011;52586;-43.152;172.732;2022-12-01T13:56:25;1.58;;;1.00;;
65825;SDS011;52586;-43.152;172.732;2022-12-01T14:02:16;0.73;;;0.68;;
65825;SDS011;52586;-43.152;172.732;2022-12-01T14:04:48;1.67;;;0.80;;
65825;SDS011;52586;-43.152;172.732;2022-12-01T14:07:22;0.90;;;0.70;;
65825;SDS011;52586;-43.152;172.732;2022-12-01T14:10:13;1.00;;;0.75;;
65825;SDS011;52586;-43.152;172.732;2022-12-01T14:12:51;1.00;;;0.68;;
65825;SDS011;52586;-43.152;172.732;2022-12-01T14:15:36;1.08;;;0.60;;
65825;SDS011;52586;-43.152;172.732;2022-12-01T14:18:23;1.42;;;0.90;;
65825;SDS011;52586;-43.152;172.732;2022-12-01T14:21:00;1.42;;;0.70;;
65825;SDS011;52586;-43.152;172.732;2022-12-01T14:23:32;1.85;;;0.70;;
65825;SDS011;52586;-43.152;172.732;2022-12-01T14:26:16;1.58;;;0.70;;
65825;SDS011;52586;-43.152;172.732;2022-12-01T14:29:07;0.90;;;0.70;;
65825;SDS011;52586;-43.152;172.732;2022-12-01T14:32:02;1.88;;;0.80;;
65825;SDS011;52586;-43.152;172.732;2022-12-01T14:35:02;1.70;;;0.75;;
65825;SDS011;52586;-43.152;172.732;2022-12-01T14:37:42;1.45;;;0.80;;
65825;SDS011;52586;-43.152;172.732;2022-12-01T14:40:21;1.10;;;0.63;;
65825;SDS011;52586;-43.152;172.732;2022-12-01T14:42:59;1.20;;;0.80;;
65825;SDS011;52586;-43.152;172.732;2022-12-01T14:46:02;1.10;;;0.73;;
65825;SDS011;52586;-43.152;172.732;2022-12-01T14:48:38;1.27;;;0.70;;
65825;SDS011;52586;-43.152;172.732;2022-12-01T14:51:18;2.08;;;0.90;;
65825;SDS011;52586;-43.152;172.732;2022-12-01T14:53:54;1.52;;;0.80;;
65825;SDS011;52586;-43.152;172.732;2022-12-01T14:56:28;1.23;;;0.80;;
65825;SDS011;52586;-43.152;172.732;2022-12-01T14:59:12;0.88;;;0.65;;
65825;SDS011;52586;-43.152;172.732;2022-12-01T15:01:48;1.08;;;0.73;;
65825;SDS011;52586;-43.152;172.732;2022-12-01T15:04:20;0.85;;;0.70;;
65825;SDS011;52586;-43.152;172.732;2022-12-01T15:06:54;1.10;;;0.63;;